.
WxDataArchive / Data Records for 2009-06-27
2009-06-26 June 2009 2009-06-28

Data Records for Saturday, 27 June 2009

Time	Temp	Chill	HIndex	Humid	Dewpt	 Wind 	HiWind	WindDir	Rain 	Barom 
-----	----	-----	------	-----	-----	------	------	-------	-----	----- 
00:00	71.8	71.8	71.8	67	60.2	0	0	---	0.00	29.846 
00:05	71.5	71.5	71.5	67	60.0	0	0	---	0.00	29.846 
00:10	71.3	71.3	71.3	67	59.8	0	0	---	0.00	29.846 
00:15	70.9	70.9	70.9	68	59.8	0	0	---	0.00	29.848 
00:20	70.6	70.6	70.6	69	59.9	0	0	---	0.00	29.848 
00:25	70.3	70.3	70.3	69	59.6	0	0	---	0.00	29.848 
00:30	69.9	69.9	69.9	70	59.7	0	0	---	0.00	29.847 
00:35	69.6	69.6	69.6	71	59.8	0	0	---	0.00	29.847 
00:40	69.4	69.4	69.4	72	60.0	0	0	---	0.00	29.847 
00:45	69.3	69.3	69.3	73	60.3	0	0	---	0.00	29.849 
00:50	69.1	69.1	69.1	73	60.1	0	0	---	0.00	29.849 
00:55	68.9	68.9	68.9	74	60.3	0	0	---	0.00	29.849 
01:00	68.8	68.8	68.8	74	60.2	0	0	---	0.00	29.858 
01:05	68.4	68.4	68.4	75	60.2	0	0	---	0.00	29.858 
01:10	68.3	68.3	68.3	76	60.4	0	0	---	0.00	29.858 
01:15	68.1	68.1	68.1	77	60.6	0	0	---	0.00	29.858 
01:20	67.9	67.9	67.9	77	60.4	0	0	---	0.00	29.858 
01:25	67.6	67.6	67.6	77	60.1	0	0	---	0.00	29.858 
01:30	67.4	67.4	67.4	78	60.3	0	0	---	0.00	29.859 
01:35	67.3	67.3	67.3	79	60.6	0	0	---	0.00	29.859 
01:40	67.1	67.1	67.1	80	60.7	0	1	292	0.00	29.859 
01:45	66.9	66.9	66.9	80	60.5	0	0	---	0.00	29.859 
01:50	66.8	66.8	66.8	80	60.4	0	0	---	0.00	29.859 
01:55	66.6	66.6	66.6	81	60.6	0	0	---	0.00	29.859 
02:00	66.4	66.4	66.4	81	60.4	0	0	---	0.00	29.851 
02:05	66.3	66.3	66.3	81	60.3	0	0	---	0.00	29.851 
02:10	66.3	66.3	66.3	82	60.6	0	0	---	0.00	29.851 
02:15	66.1	66.1	66.1	82	60.4	0	0	---	0.00	29.849 
02:20	66.0	66.0	66.0	83	60.7	0	0	---	0.00	29.849 
02:25	66.0	66.0	66.0	83	60.7	0	0	---	0.00	29.849 
02:30	65.8	65.8	65.8	83	60.5	0	0	---	0.00	29.852 
02:35	65.6	65.6	65.6	84	60.6	0	0	---	0.00	29.852 
02:40	65.5	65.5	65.5	84	60.5	0	0	---	0.00	29.852 
02:45	65.5	65.5	65.5	84	60.5	0	0	---	0.00	29.855 
02:50	65.3	65.3	65.3	84	60.3	0	0	---	0.00	29.855 
02:55	65.2	65.2	65.2	85	60.6	0	0	---	0.00	29.855 
03:00	65.2	65.2	65.2	85	60.6	0	0	---	0.00	29.855 
03:05	65.0	65.0	65.0	85	60.4	0	0	---	0.00	29.855 
03:10	65.0	65.0	65.0	86	60.7	0	0	---	0.00	29.855 
03:15	64.8	64.8	64.8	86	60.5	0	0	---	0.00	29.866 
03:20	64.8	64.8	64.8	86	60.5	0	0	---	0.00	29.866 
03:25	64.7	64.7	64.7	86	60.4	0	0	---	0.00	29.866 
03:30	64.7	64.7	64.7	87	60.7	0	0	---	0.00	29.870 
03:35	64.5	64.5	64.5	87	60.5	0	0	---	0.00	29.870 
03:40	64.5	64.5	64.5	87	60.5	0	0	---	0.00	29.870 
03:45	64.3	64.3	64.3	87	60.3	0	0	---	0.00	29.871 
03:50	64.3	64.3	64.3	88	60.7	0	0	---	0.00	29.871 
03:55	64.2	64.2	64.2	88	60.6	0	0	---	0.00	29.871 
04:00	64.2	64.2	64.2	88	60.6	0	0	---	0.00	29.875 
04:05	64.0	64.0	64.0	88	60.4	0	0	---	0.00	29.875 
04:10	64.0	64.0	64.0	89	60.7	0	0	---	0.00	29.875 
04:15	64.0	64.0	64.0	89	60.7	0	0	---	0.00	29.870 
04:20	63.9	63.9	63.9	89	60.6	0	0	---	0.00	29.870 
04:25	63.9	63.9	63.9	89	60.6	0	0	---	0.00	29.870 
04:30	63.9	63.9	63.9	90	60.9	0	0	---	0.00	29.880 
04:35	64.0	64.0	64.0	90	61.0	0	0	---	0.00	29.880 
04:40	64.0	64.0	64.0	90	61.0	0	0	---	0.00	29.880 
04:45	64.0	64.0	64.0	90	61.0	0	0	---	0.00	29.881 
04:50	64.2	64.2	64.2	90	61.2	0	0	---	0.00	29.881 
04:55	64.2	64.2	64.2	90	61.2	0	1	292	0.00	29.881 
05:00	64.2	64.2	64.2	89	60.9	0	0	---	0.00	29.888 
05:05	64.3	64.3	64.3	89	61.0	0	3	112	0.00	29.888 
05:10	64.5	64.5	64.5	88	60.9	0	1	112	0.00	29.888 
05:15	64.7	64.7	64.7	88	61.1	0	0	---	0.00	29.889 
05:20	64.8	64.8	64.8	87	60.8	0	0	---	0.00	29.889 
05:25	64.7	64.7	64.7	87	60.7	0	0	---	0.00	29.889 
05:30	64.7	64.7	64.7	87	60.7	0	1	112	0.00	29.888 
05:35	64.5	64.5	64.5	87	60.5	0	1	112	0.00	29.888 
05:40	64.5	64.5	64.5	87	60.5	0	1	112	0.00	29.888 
05:45	64.5	64.5	64.5	87	60.5	0	1	112	0.00	29.892 
05:50	64.5	64.5	64.5	87	60.5	0	1	112	0.00	29.892 
05:55	64.3	64.3	64.3	88	60.7	0	1	112	0.00	29.892 
06:00	64.3	64.3	64.3	88	60.7	0	0	---	0.00	29.898 
06:05	64.3	64.3	64.3	88	60.7	0	1	112	0.00	29.898 
06:10	64.2	64.2	64.2	88	60.6	0	1	112	0.00	29.898 
06:15	64.2	64.2	64.2	88	60.6	0	0	---	0.00	29.905 
06:20	64.2	64.2	64.2	88	60.6	0	1	112	0.00	29.905 
06:25	64.2	64.2	64.2	88	60.6	0	2	112	0.00	29.905 
06:30	64.2	64.2	64.2	88	60.6	1	3	112	0.00	29.908 
06:35	64.3	64.3	64.3	88	60.7	1	2	68	0.00	29.908 
06:40	64.3	64.3	64.3	88	60.7	1	3	68	0.00	29.908 
06:45	64.3	64.3	64.3	88	60.7	1	3	68	0.00	29.902 
06:50	64.5	64.5	64.5	87	60.5	1	3	68	0.00	29.902 
06:55	64.5	64.5	64.5	87	60.5	1	2	68	0.00	29.902 
07:00	64.5	64.5	64.5	87	60.5	1	4	68	0.00	29.904 
07:05	64.7	64.7	64.7	88	61.1	1	3	68	0.00	29.904 
07:10	64.8	64.8	64.8	88	61.2	1	3	90	0.00	29.904 
07:15	65.0	65.0	65.0	87	61.0	1	2	68	0.00	29.911 
07:20	65.0	65.0	65.0	87	61.0	1	4	90	0.00	29.911 
07:25	65.2	65.2	65.2	87	61.2	1	4	90	0.00	29.911 
07:30	65.6	65.6	65.6	87	61.6	1	4	90	0.00	29.912 
07:35	66.1	66.1	66.1	85	61.5	1	2	90	0.00	29.912 
07:40	66.4	66.4	66.4	84	61.4	2	4	90	0.00	29.912 
07:45	67.1	67.1	67.1	82	61.4	2	4	68	0.00	29.910 
07:50	67.6	67.6	67.6	81	61.6	2	5	90	0.00	29.910 
07:55	68.4	68.4	68.4	78	61.3	1	4	90	0.00	29.910 
08:00	69.1	69.1	69.1	77	61.6	2	5	90	0.00	29.909 
08:05	69.6	69.6	69.6	76	61.7	2	5	90	0.00	29.909 
08:10	69.4	69.4	69.4	76	61.5	2	5	90	0.00	29.909 
08:15	69.1	69.1	69.1	78	61.9	2	3	90	0.00	29.903 
08:20	69.4	69.4	69.4	77	61.9	2	5	112	0.00	29.903 
08:25	70.1	70.1	70.1	76	62.2	2	4	68	0.00	29.903 
08:30	70.9	70.9	70.9	74	62.2	2	4	90	0.00	29.905 
08:35	70.9	70.9	70.9	73	61.8	3	7	90	0.00	29.905 
08:40	71.3	71.3	71.3	73	62.2	2	5	90	0.00	29.905 
08:45	71.6	71.6	71.6	73	62.5	2	5	90	0.00	29.902 
08:50	71.8	71.8	71.8	73	62.7	3	5	112	0.00	29.902 
08:55	72.0	72.0	72.0	73	62.9	3	6	90	0.00	29.902 
09:00	72.3	72.3	72.3	72	62.8	2	4	112	0.00	29.903 
09:05	72.7	72.7	72.7	70	62.3	2	5	90	0.00	29.903 
09:10	73.0	73.0	73.0	70	62.6	2	5	90	0.00	29.903 
09:15	73.3	73.3	73.3	68	62.1	2	5	68	0.00	29.907 
09:20	73.5	73.5	73.5	65	61.0	2	5	68	0.00	29.907 
09:25	73.7	73.7	73.7	65	61.2	2	5	135	0.00	29.907 
09:30	74.0	74.0	74.0	65	61.5	1	3	90	0.00	29.900 
09:35	74.6	74.6	74.6	65	62.0	2	5	90	0.00	29.900 
09:40	74.9	74.9	74.9	63	61.4	2	7	112	0.00	29.900 
09:45	75.1	75.1	77.2	64	62.1	2	5	112	0.00	29.905 
09:50	75.3	75.3	77.4	63	61.8	1	4	90	0.00	29.905 
09:55	75.8	75.8	77.8	63	62.3	2	5	90	0.00	29.905 
10:00	75.6	75.6	77.7	61	61.2	2	6	90	0.00	29.906 
10:05	76.0	76.0	78.0	62	62.0	1	5	90	0.00	29.906 
10:10	76.3	76.3	78.2	61	61.8	3	10	90	0.00	29.906 
10:15	76.5	76.5	78.4	61	62.0	2	4	112	0.00	29.907 
10:20	76.8	76.8	78.6	60	61.8	2	5	112	0.00	29.907 
10:25	77.2	77.2	78.9	60	62.2	2	5	90	0.00	29.907 
10:30	77.2	77.2	78.9	58	61.3	3	6	90	0.00	29.901 
10:35	77.2	77.2	78.9	58	61.3	2	5	90	0.00	29.901 
10:40	77.9	77.9	79.5	58	61.9	2	4	90	0.00	29.901 
10:45	78.5	78.5	80.0	57	62.0	2	5	90	0.00	29.900 
10:50	78.8	78.8	80.2	56	61.8	1	4	90	0.00	29.900 
10:55	79.4	79.4	80.9	57	62.8	1	4	90	0.00	29.900 
11:00	79.8	79.8	81.0	54	61.7	2	4	90	0.00	29.898 
11:05	79.8	79.8	81.3	57	63.2	1	4	90	0.00	29.898 
11:10	79.8	79.8	81.2	56	62.7	2	5	90	0.00	29.898 
11:15	80.1	80.1	81.2	53	61.4	1	4	90	0.00	29.895 
11:20	80.7	80.7	81.9	54	62.5	1	2	90	0.00	29.895 
11:25	81.1	81.1	82.2	53	62.3	1	2	248	0.00	29.895 
11:30	81.4	81.4	82.7	54	63.1	1	3	90	0.00	29.899 
11:35	82.0	82.0	82.6	49	60.9	1	3	90	0.00	29.899 
11:40	82.0	82.0	83.1	52	62.6	0	3	90	0.00	29.899 
11:45	82.0	82.0	82.8	50	61.5	1	4	22	0.00	29.897 
11:50	82.2	82.2	83.1	51	62.2	0	2	338	0.00	29.897 
11:55	82.4	82.4	83.2	50	61.9	1	4	270	0.00	29.897 
12:00	82.6	82.6	83.3	49	61.5	2	5	90	0.00	29.896 
12:05	82.4	82.4	83.0	49	61.3	2	4	90	0.00	29.896 
12:10	82.4	82.4	82.6	46	59.5	1	4	112	0.00	29.896 
12:15	82.2	82.2	83.0	50	61.7	1	4	90	0.00	29.900 
12:20	82.2	82.2	83.1	51	62.2	1	2	90	0.00	29.900 
12:25	82.0	82.0	82.5	48	60.3	1	4	90	0.00	29.900 
12:30	82.2	82.2	82.7	48	60.5	1	3	90	0.00	29.901 
12:35	82.2	82.2	83.0	50	61.7	2	5	90	0.00	29.901 
12:40	82.0	82.0	82.6	49	60.9	1	3	90	0.00	29.901 
12:45	82.0	82.0	82.5	48	60.3	0	1	90	0.00	29.904 
12:50	82.4	82.4	83.2	50	61.9	1	3	90	0.00	29.904 
12:55	82.6	82.6	83.0	47	60.3	2	5	112	0.00	29.904 
13:00	82.8	82.8	83.0	46	59.9	1	3	90	0.00	29.898 
13:05	83.2	83.2	83.8	48	61.4	1	4	90	0.00	29.898 
13:10	83.2	83.2	83.4	46	60.2	1	2	112	0.00	29.898 
13:15	83.0	83.0	83.2	46	60.1	1	5	68	0.00	29.899 
13:20	82.6	82.6	83.1	48	60.9	1	4	68	0.00	29.899 
13:25	82.2	82.2	82.8	49	61.1	1	2	90	0.00	29.899 
13:30	82.0	82.0	82.8	50	61.5	0	1	90	0.00	29.897 
13:35	82.2	82.2	83.3	52	62.8	0	2	90	0.00	29.897 
13:40	82.6	82.6	83.3	49	61.5	1	3	90	0.00	29.897 
13:45	83.2	83.2	83.6	47	60.8	1	2	90	0.00	29.897 
13:50	83.6	83.6	84.2	48	61.8	0	1	90	0.00	29.897 
13:55	83.8	83.8	84.7	49	62.6	1	4	90	0.00	29.897 
14:00	83.6	83.6	84.1	47	61.2	2	5	90	0.00	29.895 
14:05	83.4	83.4	83.8	47	61.0	0	1	112	0.00	29.895 
14:10	83.6	83.6	84.6	50	63.0	1	4	112	0.00	29.895 
14:15	83.8	83.8	84.7	49	62.6	0	3	270	0.00	29.893 
14:20	83.8	83.8	84.1	46	60.8	1	2	270	0.00	29.893 
14:25	83.8	83.8	84.1	46	60.8	0	1	270	0.00	29.893 
14:30	83.6	83.6	84.2	48	61.8	1	2	270	0.00	29.885 
14:35	83.4	83.4	84.4	50	62.8	1	5	90	0.00	29.885 
14:40	83.2	83.2	83.8	48	61.4	0	1	90	0.00	29.885 
14:45	83.4	83.4	84.2	49	62.2	1	4	90	0.00	29.878 
14:50	83.6	83.6	84.6	50	63.0	1	3	90	0.00	29.878 
14:55	84.0	84.0	84.3	46	61.0	1	2	90	0.00	29.878 
15:00	84.5	84.5	84.3	43	59.5	0	1	90	0.00	29.871 
15:05	84.5	84.5	84.3	43	59.5	0	2	90	0.00	29.871 
15:10	84.3	84.3	84.5	45	60.6	0	2	90	0.00	29.871 
15:15	84.0	84.0	84.3	46	61.0	1	4	90	0.00	29.869 
15:20	84.0	84.0	84.3	46	61.0	2	4	90	0.00	29.869 
15:25	84.1	84.1	84.3	45	60.4	1	4	90	0.00	29.869 
15:30	84.0	84.0	84.3	46	61.0	1	2	90	0.00	29.869 
15:35	84.1	84.1	84.4	46	61.1	1	4	90	0.00	29.869 
15:40	84.7	84.7	85.6	48	62.8	1	7	112	0.00	29.869 
15:45	85.5	85.5	85.5	43	60.4	1	3	112	0.00	29.867 
15:50	85.3	85.3	85.2	43	60.2	1	2	112	0.00	29.867 
15:55	84.7	84.7	84.7	44	60.3	0	1	112	0.00	29.867 
16:00	84.7	84.7	84.7	44	60.3	1	2	112	0.00	29.868 
16:05	84.9	84.9	85.2	45	61.2	0	2	112	0.00	29.868 
16:10	85.3	85.3	85.9	46	62.1	0	2	135	0.00	29.868 
16:15	85.5	85.5	85.3	42	59.8	0	3	135	0.00	29.865 
16:20	85.1	85.1	85.0	43	60.1	1	3	135	0.00	29.865 
16:25	85.1	85.1	85.7	46	62.0	0	2	135	0.00	29.865 
16:30	85.5	85.5	85.7	44	61.1	0	3	135	0.00	29.858 
16:35	85.1	85.1	85.0	43	60.1	0	1	225	0.00	29.858 
16:40	84.5	84.5	84.7	45	60.8	0	1	225	0.00	29.858 
16:45	84.3	84.3	84.9	47	61.8	0	1	338	0.00	29.856 
16:50	84.3	84.3	84.9	47	61.8	0	2	338	0.00	29.856 
16:55	84.3	84.3	84.9	47	61.8	0	2	45	0.00	29.856 
17:00	84.7	84.7	84.7	44	60.3	1	2	45	0.00	29.853 
17:05	85.1	85.1	85.4	45	61.3	1	3	112	0.00	29.853 
17:10	85.1	85.1	85.4	45	61.3	1	3	112	0.00	29.853 
17:15	84.9	84.9	85.2	45	61.2	1	2	112	0.00	29.851 
17:20	85.3	85.3	85.2	43	60.2	1	3	112	0.00	29.851 
17:25	85.3	85.3	85.5	44	60.9	1	4	90	0.00	29.851 
17:30	84.9	84.9	85.0	44	60.5	1	3	90	0.00	29.845 
17:35	84.3	84.3	84.9	47	61.8	2	4	90	0.00	29.845 
17:40	84.3	84.3	84.7	46	61.2	0	2	90	0.00	29.845 
17:45	84.9	84.9	84.8	43	59.9	0	2	90	0.00	29.839 
17:50	85.3	85.3	85.2	43	60.2	2	5	90	0.00	29.839 
17:55	85.7	85.7	86.0	44	61.2	1	4	135	0.00	29.839 
18:00	85.7	85.7	85.7	43	60.6	2	5	90	0.00	29.836 
18:05	85.5	85.5	85.3	42	59.8	1	3	90	0.00	29.836 
18:10	85.5	85.5	85.5	43	60.4	0	3	90	0.00	29.836 
18:15	85.5	85.5	85.5	43	60.4	0	2	90	0.00	29.833 
18:20	85.3	85.3	85.5	44	60.9	0	3	22	0.00	29.833 
18:25	85.1	85.1	85.2	44	60.7	1	3	68	0.00	29.833 
18:30	84.9	84.9	85.0	44	60.5	1	2	248	0.00	29.825 
18:35	84.7	84.7	84.6	43	59.7	1	2	112	0.00	29.825 
18:40	84.5	84.5	84.5	44	60.2	1	4	90	0.00	29.825 
18:45	84.3	84.3	84.3	44	60.0	1	3	45	0.00	29.823 
18:50	84.1	84.1	84.4	46	61.1	0	1	292	0.00	29.823 
18:55	84.0	84.0	84.1	45	60.3	0	2	292	0.00	29.823 
19:00	83.8	83.8	84.1	46	60.8	0	3	292	0.00	29.817 
19:05	83.6	83.6	84.1	47	61.2	0	1	292	0.00	29.817 
19:10	83.6	83.6	83.9	46	60.6	0	1	292	0.00	29.817 
19:15	83.6	83.6	83.9	46	60.6	0	1	292	0.00	29.804 
19:20	83.6	83.6	83.9	46	60.6	0	1	292	0.00	29.804 
19:25	83.6	83.6	84.1	47	61.2	0	3	292	0.00	29.804 
19:30	83.6	83.6	84.2	48	61.8	1	2	135	0.00	29.799 
19:35	83.6	83.6	84.2	48	61.8	0	2	135	0.00	29.799 
19:40	83.6	83.6	84.2	48	61.8	0	1	135	0.00	29.799 
19:45	83.4	83.4	84.0	48	61.6	0	1	135	0.00	29.789 
19:50	83.2	83.2	84.0	49	62.0	0	1	135	0.00	29.789 
19:55	83.2	83.2	84.0	49	62.0	0	1	135	0.00	29.789 
20:00	83.0	83.0	83.9	50	62.4	0	1	135	0.00	29.781 
20:05	82.8	82.8	83.5	49	61.7	0	2	135	0.00	29.781 
20:10	82.8	82.8	83.5	49	61.7	0	1	135	0.00	29.781 
20:15	82.8	82.8	83.8	51	62.8	0	1	135	0.00	29.775 
20:20	82.6	82.6	83.4	50	62.0	0	0	---	0.00	29.775 
20:25	82.4	82.4	83.2	50	61.9	0	0	---	0.00	29.775 
20:30	82.2	82.2	83.1	51	62.2	0	1	135	0.00	29.782 
20:35	82.2	82.2	83.3	52	62.8	0	0	---	0.00	29.782 
20:40	81.8	81.8	83.0	53	63.0	0	0	---	0.00	29.782 
20:45	81.6	81.6	82.9	54	63.3	0	0	---	0.00	29.786 
20:50	81.2	81.2	82.5	54	62.9	0	0	---	0.00	29.786 
20:55	80.9	80.9	82.3	55	63.2	0	0	---	0.00	29.786 
21:00	80.5	80.5	81.9	56	63.3	0	0	---	0.00	29.794 
21:05	79.9	79.9	81.3	56	62.8	0	0	---	0.00	29.794 
21:10	79.6	79.6	81.0	56	62.5	0	0	---	0.00	29.794 
21:15	79.2	79.2	80.7	57	62.6	0	0	---	0.00	29.802 
21:20	78.6	78.6	80.1	58	62.6	0	0	---	0.00	29.802 
21:25	78.3	78.3	79.9	58	62.3	0	0	---	0.00	29.802 
21:30	78.1	78.1	79.8	61	63.5	0	0	---	0.00	29.802 
21:35	77.7	77.7	79.4	61	63.2	0	0	---	0.00	29.802 
21:40	77.4	77.4	79.1	61	62.9	0	0	---	0.00	29.802 
21:45	77.2	77.2	79.0	62	63.2	0	0	---	0.00	29.810 
21:50	76.8	76.8	78.6	62	62.8	0	0	---	0.00	29.810 
21:55	76.5	76.5	78.3	64	63.4	0	0	---	0.00	29.810 
22:00	76.3	76.3	78.2	64	63.2	0	0	---	0.00	29.804 
22:05	76.0	76.0	77.9	65	63.4	0	0	---	0.00	29.804 
22:10	75.8	75.8	77.7	65	63.2	0	0	---	0.00	29.804 
22:15	75.4	75.4	77.4	65	62.8	0	0	---	0.00	29.802 
22:20	75.3	75.3	77.2	66	63.1	0	0	---	0.00	29.802 
22:25	74.9	74.9	74.9	66	62.8	0	0	---	0.00	29.802 
22:30	74.7	74.7	74.7	67	63.0	0	0	---	0.00	29.801 
22:35	74.6	74.6	74.6	67	62.9	0	0	---	0.00	29.801 
22:40	74.6	74.6	74.6	68	63.3	0	0	---	0.00	29.801 
22:45	74.4	74.4	74.4	67	62.7	0	0	---	0.00	29.799 
22:50	74.4	74.4	74.4	68	63.1	0	0	---	0.00	29.799 
22:55	74.2	74.2	74.2	68	62.9	0	0	---	0.00	29.799 
23:00	74.2	74.2	74.2	69	63.4	0	0	---	0.00	29.800 
23:05	74.0	74.0	74.0	69	63.2	0	0	---	0.00	29.800 
23:10	74.0	74.0	74.0	69	63.2	0	0	---	0.00	29.800 
23:15	74.0	74.0	74.0	69	63.2	0	0	---	0.00	29.792 
23:20	73.9	73.9	73.9	70	63.5	0	0	---	0.00	29.792 
23:25	73.9	73.9	73.9	69	63.1	0	0	---	0.00	29.792 
23:30	73.7	73.7	73.7	69	62.9	0	0	---	0.00	29.791 
23:35	73.7	73.7	73.7	69	62.9	0	0	---	0.00	29.791 
23:40	73.5	73.5	73.5	69	62.7	0	0	---	0.00	29.791 
23:45	73.3	73.3	73.3	69	62.5	0	0	---	0.00	29.786 
23:50	73.5	73.5	73.5	69	62.7	0	0	---	0.00	29.786 
23:55	73.5	73.5	73.5	70	63.1	0	0	---	0.00	29.786 

CoCoRaHS
IN-AL-39
A2 Web Hosting
Creative Commons License
GoDaddy
search engine by freefind advanced

loaded 2018-11-17 05:41:13 • last modified 2010-11-18 10:43:29
Privacy PolicyDisclaimer
• wx.awcolley.com is powered by PmWiki v.2002016 •
• all content (unless otherwise noted) © 2018 A W Colley